Time;durP1;ratioP1;P1;durP2;ratioP2;P2;SDS_P1;SDS_P2;PMS_P1;PMS_P2;Temp;Humidity;BMP_temperature;BMP_pressure;BME280_temperature;BME280_humidity;BME280_pressure;Samples;Min_cycle;Max_cycle;Signal;HPM_P1;HPM_P2
2023/07/24 00:00:47;;;;;;;;;4.00;2.50;;;;;19.03;74.26;100356.44;4986433;28;8837;-67
2023/07/24 00:03:14;;;;;;;;;3.50;3.50;;;;;19.03;74.35;100358.34;4991502;28;8967;-68
2023/07/24 00:05:41;;;;;;;;;4.75;4.00;;;;;19.02;74.38;100359.44;5005907;28;8846;-67
2023/07/24 00:08:07;;;;;;;;;3.00;3.00;;;;;19.03;74.57;100355.63;4991673;28;8850;-67
2023/07/24 00:10:34;;;;;;;;;2.75;2.25;;;;;19.05;74.46;100361.66;4991942;28;8840;-66
2023/07/24 00:13:01;;;;;;;;;6.00;5.50;;;;;19.03;74.65;100363.81;4986214;28;8857;-67
2023/07/24 00:15:27;;;;;;;;;5.75;5.00;;;;;19.04;74.71;100360.00;4990712;28;8923;-66
2023/07/24 00:17:54;;;;;;;;;2.75;2.75;;;;;19.05;74.62;100353.47;4991150;28;8857;-66
2023/07/24 00:20:21;;;;;;;;;3.75;3.75;;;;;19.04;74.73;100346.38;4989253;28;8845;-67
2023/07/24 00:22:47;;;;;;;;;7.75;5.00;;;;;19.01;74.94;100344.16;4988945;28;8853;-67
2023/07/24 00:25:14;;;;;;;;;4.00;4.00;;;;;18.96;74.96;100333.22;4988775;28;9519;-66
2023/07/24 00:27:40;;;;;;;;;8.75;6.50;;;;;18.95;75.15;100337.00;4988211;28;8865;-66
2023/07/24 00:30:07;;;;;;;;;10.00;6.75;;;;;18.90;75.14;100335.06;4988551;28;9624;-67
2023/07/24 00:32:33;;;;;;;;;9.50;6.00;;;;;18.82;75.34;100327.38;4990389;28;8992;-67
2023/07/24 00:35:01;;;;;;;;;3.75;3.75;;;;;18.80;75.61;100320.53;5021484;28;8868;-67
2023/07/24 00:37:28;;;;;;;;;6.25;4.50;;;;;18.81;75.60;100324.94;4987833;28;8974;-66
2023/07/24 00:39:55;;;;;;;;;5.50;5.50;;;;;18.78;75.57;100324.34;5001248;28;8912;-67
2023/07/24 00:42:22;;;;;;;;;3.00;3.00;;;;;18.82;75.48;100326.56;4961031;28;8834;-66
2023/07/24 00:44:49;;;;;;;;;6.50;4.00;;;;;18.76;75.35;100323.81;5003995;28;9565;-69
2023/07/24 00:47:17;;;;;;;;;3.00;3.00;;;;;18.76;75.48;100320.25;4995132;28;8873;-66
2023/07/24 00:49:46;;;;;;;;;4.75;4.75;;;;;18.78;75.51;100312.63;4986146;28;8838;-66
2023/07/24 00:52:13;;;;;;;;;4.00;4.00;;;;;18.80;75.16;100305.03;4965081;28;9028;-65
2023/07/24 00:54:40;;;;;;;;;4.00;3.75;;;;;18.83;75.20;100300.94;4987641;28;8935;-66
2023/07/24 00:57:07;;;;;;;;;6.50;4.50;;;;;18.84;74.99;100303.41;4990075;28;8915;-65
2023/07/24 00:59:35;;;;;;;;;2.50;2.50;;;;;18.85;74.82;100302.31;4989658;28;8829;-65
2023/07/24 01:02:02;;;;;;;;;5.25;3.50;;;;;18.84;74.90;100302.56;4997179;28;9566;-66
2023/07/24 01:04:29;;;;;;;;;2.00;2.00;;;;;18.86;74.72;100303.13;4987057;28;8856;-65
2023/07/24 01:06:57;;;;;;;;;3.00;3.00;;;;;18.84;74.89;100302.56;4982285;28;8857;-66
2023/07/24 01:09:23;;;;;;;;;5.00;5.00;;;;;18.82;75.00;100297.38;5011631;28;8856;-65
2023/07/24 01:12:05;;;;;;;;;10.50;7.75;;;;;18.76;74.74;100296.53;5013176;28;8971;-67
2023/07/24 01:14:47;;;;;;;;;6.75;4.50;;;;;18.74;74.87;100293.25;5001348;28;8837;-66
2023/07/24 01:17:23;;;;;;;;;5.75;5.00;;;;;18.69;75.27;100300.53;4997352;28;8876;-65
2023/07/24 01:19:55;;;;;;;;;6.25;5.50;;;;;18.69;75.58;100295.09;5005646;28;8869;-67
2023/07/24 01:22:40;;;;;;;;;4.00;3.00;;;;;18.65;75.08;100300.22;4989664;28;8979;-67
2023/07/24 01:25:36;;;;;;;;;5.00;5.00;;;;;18.63;75.27;100290.66;4998355;28;8858;-66
2023/07/24 01:28:07;;;;;;;;;3.00;3.00;;;;;18.58;75.60;100302.34;4997328;28;8854;-66
2023/07/24 01:30:34;;;;;;;;;3.00;3.00;;;;;18.59;75.64;100297.72;5005196;28;8849;-65
2023/07/24 01:33:02;;;;;;;;;6.50;4.50;;;;;18.61;75.52;100301.84;4995520;28;8854;-67
2023/07/24 01:35:30;;;;;;;;;5.75;4.25;;;;;18.57;75.48;100289.81;4988510;28;9541;-66
2023/07/24 01:37:58;;;;;;;;;3.25;3.00;;;;;18.56;75.90;100296.34;4997870;28;8857;-67
2023/07/24 01:40:24;;;;;;;;;4.25;4.25;;;;;18.57;75.77;100289.00;5014376;28;8867;-67
2023/07/24 01:42:51;;;;;;;;;5.25;5.00;;;;;18.53;75.73;100291.41;4992634;28;8821;-64
2023/07/24 01:45:18;;;;;;;;;5.50;2.75;;;;;18.52;75.96;100281.59;4986899;28;8818;-65
2023/07/24 01:47:45;;;;;;;;;9.67;9.67;;;;;18.49;75.85;100271.22;4996036;28;8851;-67
2023/07/24 01:50:11;;;;;;;;;5.25;4.50;;;;;18.45;75.98;100272.81;5003146;28;9738;-65
2023/07/24 01:52:38;;;;;;;;;4.25;4.25;;;;;18.45;76.56;100276.34;4993785;28;8868;-66
2023/07/24 01:55:05;;;;;;;;;5.25;4.25;;;;;18.47;76.40;100271.47;4992391;28;8919;-66
2023/07/24 01:57:31;;;;;;;;;7.50;5.25;;;;;18.48;75.99;100277.75;4999777;28;8845;-66
2023/07/24 01:59:58;;;;;;;;;3.00;3.00;;;;;18.47;76.41;100287.00;4993111;28;8845;-67
2023/07/24 02:02:24;;;;;;;;;3.50;3.50;;;;;18.45;76.44;100279.09;5008993;28;8876;-65
2023/07/24 02:04:51;;;;;;;;;4.50;3.00;;;;;18.47;76.56;100279.66;5009606;28;8872;-66
2023/07/24 02:07:17;;;;;;;;;8.25;6.25;;;;;18.48;76.39;100266.84;5021667;28;8822;-65
2023/07/24 02:09:44;;;;;;;;;4.75;4.75;;;;;18.50;76.45;100270.94;4986320;28;8849;-67
2023/07/24 02:12:11;;;;;;;;;5.00;4.00;;;;;18.51;76.16;100269.88;4992360;28;8834;-65
2023/07/24 02:14:38;;;;;;;;;11.33;6.67;;;;;18.50;76.24;100267.41;4995956;28;8837;-65
2023/07/24 02:17:04;;;;;;;;;3.50;3.50;;;;;18.49;76.46;100269.31;4994141;28;8940;-65
2023/07/24 02:19:30;;;;;;;;;8.00;7.00;;;;;18.47;76.35;100266.03;4992830;28;8844;-65
2023/07/24 02:21:57;;;;;;;;;6.00;6.00;;;;;18.45;76.42;100262.72;4988404;28;8856;-66
2023/07/24 02:24:24;;;;;;;;;3.00;3.00;;;;;18.47;76.41;100257.00;4993760;28;8842;-64
2023/07/24 02:26:50;;;;;;;;;3.00;3.00;;;;;18.46;76.27;100258.91;5002459;28;8847;-65
2023/07/24 02:29:17;;;;;;;;;7.00;5.25;;;;;18.48;76.63;100253.22;4996226;28;8833;-66
2023/07/24 02:31:43;;;;;;;;;2.25;2.25;;;;;18.47;76.52;100246.97;4990707;28;8845;-65
2023/07/24 02:34:10;;;;;;;;;8.33;6.33;;;;;18.49;76.44;100241.22;5005349;28;8881;-66
2023/07/24 02:36:41;;;;;;;;;6.25;4.50;;;;;18.49;76.25;100235.78;4993460;28;9071;-65
2023/07/24 02:39:08;;;;;;;;;5.00;4.00;;;;;18.51;76.30;100239.06;4993350;28;8925;-65
2023/07/24 02:41:34;;;;;;;;;5.75;4.50;;;;;18.51;76.23;100234.44;4992587;28;8827;-66
2023/07/24 02:44:03;;;;;;;;;6.75;6.25;;;;;18.50;76.10;100237.41;4992187;28;8860;-66
2023/07/24 02:46:30;;;;;;;;;5.75;5.75;;;;;18.50;76.14;100245.59;4993023;28;8841;-66
2023/07/24 02:48:57;;;;;;;;;4.25;4.25;;;;;18.48;75.97;100245.88;4992621;28;8826;-66
2023/07/24 02:51:24;;;;;;;;;7.25;5.00;;;;;18.48;76.36;100245.88;4987711;28;8847;-66
2023/07/24 02:53:50;;;;;;;;;5.00;3.75;;;;;18.47;76.31;100244.22;5001841;28;8841;-67
2023/07/24 02:56:18;;;;;;;;;7.50;7.00;;;;;18.46;76.17;100239.84;4991783;28;8967;-66
2023/07/24 02:58:45;;;;;;;;;4.00;4.00;;;;;18.48;76.13;100232.25;4984983;28;8850;-66
2023/07/24 03:01:13;;;;;;;;;5.25;4.75;;;;;18.52;76.01;100240.72;4991801;28;8864;-66
2023/07/24 03:03:41;;;;;;;;;6.00;6.00;;;;;18.51;75.88;100239.06;5016131;28;8972;-65
2023/07/24 03:06:08;;;;;;;;;4.50;4.50;;;;;18.52;75.98;100238.81;4993275;28;9611;-65
2023/07/24 03:08:34;;;;;;;;;4.00;4.00;;;;;18.50;75.80;100221.88;4991577;28;8849;-67
2023/07/24 03:11:04;;;;;;;;;4.50;3.25;;;;;18.51;75.88;100214.53;4990544;28;8845;-67
2023/07/24 03:13:31;;;;;;;;;5.00;4.00;;;;;18.52;75.99;100224.38;4993424;28;9628;-68
2023/07/24 03:15:58;;;;;;;;;5.33;4.00;;;;;18.51;75.89;100233.59;5010835;28;8842;-67
2023/07/24 03:18:25;;;;;;;;;8.50;6.75;;;;;18.47;75.77;100230.59;4991551;28;8923;-66
2023/07/24 03:20:52;;;;;;;;;7.00;7.00;;;;;18.44;75.95;100235.75;4992373;28;8825;-68
2023/07/24 03:23:20;;;;;;;;;6.50;6.00;;;;;18.43;75.67;100215.84;4989107;28;8849;-65
2023/07/24 03:25:46;;;;;;;;;5.75;4.00;;;;;18.43;75.86;100209.56;5006350;28;8964;-65
2023/07/24 03:28:13;;;;;;;;;8.50;6.25;;;;;18.42;75.89;100208.75;5006940;28;8855;-66
2023/07/24 03:30:39;;;;;;;;;6.67;6.67;;;;;18.42;75.66;100219.63;5012024;28;8830;-68
2023/07/24 03:33:07;;;;;;;;;7.00;4.50;;;;;18.43;75.76;100218.59;4989847;28;9650;-67
2023/07/24 03:35:33;;;;;;;;;9.00;7.00;;;;;18.42;75.58;100225.09;4999269;28;8956;-67
2023/07/24 03:38:00;;;;;;;;;5.25;5.25;;;;;18.40;75.45;100216.38;4993060;28;9019;-66
2023/07/24 03:40:27;;;;;;;;;6.00;5.00;;;;;18.40;75.29;100212.84;4991938;28;8817;-66
2023/07/24 03:42:53;;;;;;;;;4.75;3.75;;;;;18.37;75.11;100210.63;4997132;28;8935;-65
2023/07/24 03:45:21;;;;;;;;;5.50;5.00;;;;;18.38;75.32;100217.72;5002760;28;8819;-66
2023/07/24 03:47:47;;;;;;;;;5.00;5.00;;;;;18.38;75.17;100215.78;5007545;28;8848;-68
2023/07/24 03:50:14;;;;;;;;;4.75;4.00;;;;;18.38;75.19;100206.81;4992059;28;8861;-68
2023/07/24 03:52:41;;;;;;;;;5.00;4.00;;;;;18.40;75.23;100210.91;4990319;28;8822;-65
2023/07/24 03:55:08;;;;;;;;;7.25;7.25;;;;;18.38;75.03;100223.16;4990635;28;8871;-66
2023/07/24 03:57:34;;;;;;;;;7.25;4.75;;;;;18.35;75.12;100221.78;4993514;28;9522;-67
2023/07/24 04:00:02;;;;;;;;;7.00;7.00;;;;;18.31;74.90;100217.94;4991446;28;8865;-66
2023/07/24 04:02:39;;;;;;;;;4.50;4.50;;;;;18.30;75.10;100221.72;4967974;28;9042;-67
2023/07/24 04:05:06;;;;;;;;;8.00;6.25;;;;;18.28;75.19;100215.72;4991216;28;8935;-65
2023/07/24 04:07:33;;;;;;;;;5.50;5.50;;;;;18.29;75.05;100212.75;4990509;28;8845;-66
2023/07/24 04:09:59;;;;;;;;;5.00;5.00;;;;;18.34;75.26;100217.41;4992377;28;8831;-63
2023/07/24 04:12:26;;;;;;;;;3.75;3.75;;;;;18.35;74.98;100210.91;4988134;28;8837;-67
2023/07/24 04:14:52;;;;;;;;;5.00;5.00;;;;;18.38;74.66;100206.81;4989546;28;8841;-65
2023/07/24 04:17:20;;;;;;;;;5.67;5.67;;;;;18.37;74.82;100210.63;4996342;28;8853;-66
2023/07/24 04:19:47;;;;;;;;;7.00;3.75;;;;;18.36;74.78;100209.00;4991603;28;9015;-68
2023/07/24 04:22:13;;;;;;;;;4.00;4.00;;;;;18.34;74.69;100214.69;4988200;28;8845;-67
2023/07/24 04:24:40;;;;;;;;;3.00;3.00;;;;;18.31;74.69;100217.94;4990873;28;8862;-66
2023/07/24 04:27:06;;;;;;;;;5.50;5.50;;;;;18.29;74.74;100220.09;4990656;28;8845;-66
2023/07/24 04:29:33;;;;;;;;;6.50;6.00;;;;;18.29;74.99;100212.75;4991239;28;8936;-67
2023/07/24 04:31:59;;;;;;;;;5.25;4.75;;;;;18.32;74.89;100216.03;5008840;28;8859;-68
2023/07/24 04:34:26;;;;;;;;;2.75;2.25;;;;;18.33;74.79;100212.22;5007936;28;8859;-65
2023/07/24 04:36:52;;;;;;;;;4.00;4.00;;;;;18.33;74.82;100212.22;4985225;28;8834;-65
2023/07/24 04:39:19;;;;;;;;;4.00;4.00;;;;;18.33;74.67;100213.03;4990418;28;8841;-65
2023/07/24 04:41:45;;;;;;;;;2.50;2.50;;;;;18.29;74.74;100201.84;4990137;28;8944;-67
2023/07/24 04:44:12;;;;;;;;;4.50;3.00;;;;;18.29;74.77;100203.75;5004662;28;8833;-67
2023/07/24 04:46:38;;;;;;;;;5.00;4.25;;;;;18.27;74.83;100206.75;5007285;28;8900;-66
2023/07/24 04:49:05;;;;;;;;;4.67;4.33;;;;;18.26;74.88;100204.25;5042724;28;8953;-68
2023/07/24 04:51:31;;;;;;;;;6.00;4.75;;;;;18.25;74.99;100205.34;5022565;28;9553;-68
2023/07/24 04:54:02;;;;;;;;;6.25;6.00;;;;;18.24;74.95;100211.88;5007277;28;8853;-67
2023/07/24 04:56:28;;;;;;;;;5.75;3.25;;;;;18.23;75.12;100205.63;5001813;28;8843;-65
2023/07/24 04:58:55;;;;;;;;;4.00;3.00;;;;;18.25;75.09;100200.72;5009686;28;8837;-64
2023/07/24 05:01:22;;;;;;;;;5.25;3.50;;;;;18.26;74.98;100210.53;4997292;28;10042;-65
2023/07/24 05:03:48;;;;;;;;;6.75;5.50;;;;;18.23;74.95;100210.22;5002805;28;8830;-67
2023/07/24 05:06:15;;;;;;;;;6.75;6.75;;;;;18.22;74.95;100214.84;4991656;28;8863;-66
2023/07/24 05:08:41;;;;;;;;;6.00;5.50;;;;;18.20;75.22;100210.78;5003927;28;8829;-66
2023/07/24 05:11:09;;;;;;;;;3.75;3.50;;;;;18.21;75.17;100206.94;4987648;28;8826;-66
2023/07/24 05:13:35;;;;;;;;;3.25;3.25;;;;;18.22;75.10;100214.03;4985514;28;8875;-66
2023/07/24 05:16:01;;;;;;;;;5.25;3.75;;;;;18.24;75.19;100212.72;4985404;28;8817;-68
2023/07/24 05:18:28;;;;;;;;;3.00;3.00;;;;;18.26;74.83;100204.25;4990839;28;8869;-66
2023/07/24 05:20:55;;;;;;;;;2.50;2.50;;;;;18.30;75.02;100208.09;4989285;28;8856;-66
2023/07/24 05:23:21;;;;;;;;;2.50;2.50;;;;;18.32;74.95;100207.88;4989570;28;8992;-65
2023/07/24 05:25:56;;;;;;;;;3.25;2.75;;;;;18.33;74.81;100209.50;4990553;28;8933;-67
2023/07/24 05:28:23;;;;;;;;;3.25;3.25;;;;;18.33;74.72;100204.06;5003762;28;8815;-66
2023/07/24 05:30:49;;;;;;;;;5.00;5.00;;;;;18.29;74.71;100207.28;4988475;28;8899;-66
2023/07/24 05:33:16;;;;;;;;;6.00;4.00;;;;;18.19;74.94;100207.22;4993571;28;8814;-66
2023/07/24 05:35:43;;;;;;;;;7.00;6.00;;;;;18.20;75.27;100211.59;4994946;28;9126;-67
2023/07/24 05:38:09;;;;;;;;;4.50;4.50;;;;;18.23;75.20;100218.41;4993004;28;8938;-66
2023/07/24 05:40:36;;;;;;;;;6.33;6.00;;;;;18.22;75.19;100211.31;5014429;28;8876;-65
2023/07/24 05:43:03;;;;;;;;;4.25;4.25;;;;;18.24;75.39;100212.72;4999542;28;9026;-65
2023/07/24 05:45:30;;;;;;;;;5.00;4.00;;;;;18.25;75.08;100217.06;4981522;28;8885;-68
2023/07/24 05:47:56;;;;;;;;;7.00;5.50;;;;;18.26;75.23;100218.69;4979089;28;8961;-66
2023/07/24 05:50:24;;;;;;;;;5.00;4.00;;;;;18.31;75.09;100211.66;4989285;28;9556;-66
2023/07/24 05:52:50;;;;;;;;;4.75;3.25;;;;;18.30;75.10;100210.84;4989097;28;9560;-65
2023/07/24 05:55:17;;;;;;;;;3.25;3.25;;;;;18.32;75.03;100211.41;4987221;28;8940;-66
2023/07/24 05:57:44;;;;;;;;;4.75;3.50;;;;;18.36;75.12;100214.44;4984188;28;8849;-68
2023/07/24 06:00:11;;;;;;;;;7.50;6.00;;;;;18.37;74.75;100213.34;4972391;28;8838;-65
2023/07/24 06:02:37;;;;;;;;;6.25;5.50;;;;;18.36;74.87;100214.44;4991113;28;8862;-68
2023/07/24 06:05:04;;;;;;;;;7.50;7.00;;;;;18.35;75.18;100216.34;4988647;28;8887;-66
2023/07/24 06:07:31;;;;;;;;;7.00;5.00;;;;;18.34;75.29;100211.94;4989585;28;8923;-66
2023/07/24 06:09:57;;;;;;;;;9.33;7.00;;;;;18.36;75.85;100214.44;4989654;28;9655;-67
2023/07/24 06:12:24;;;;;;;;;9.00;7.67;;;;;18.37;75.89;100211.44;4993365;28;9018;-68
2023/07/24 06:14:50;;;;;;;;;8.67;8.00;;;;;18.43;75.86;100215.00;4989622;28;9049;-67
2023/07/24 06:17:17;;;;;;;;;8.67;7.67;;;;;18.53;75.92;100205.00;5011837;28;9650;-66
2023/07/24 06:19:44;;;;;;;;;6.50;6.00;;;;;18.53;75.61;100210.47;5014108;28;9031;-65
2023/07/24 06:22:10;;;;;;;;;7.25;4.00;;;;;18.56;75.42;100209.13;4998667;28;8862;-66
2023/07/24 06:24:37;;;;;;;;;7.67;7.67;;;;;18.61;75.62;100211.06;4994382;28;8845;-66
2023/07/24 06:27:06;;;;;;;;;6.67;6.67;;;;;18.68;75.48;100206.22;5002259;28;9651;-66
2023/07/24 06:29:33;;;;;;;;;5.00;5.00;;;;;18.72;75.30;100205.44;4996252;28;8950;-67
2023/07/24 06:32:00;;;;;;;;;7.00;6.75;;;;;18.72;75.39;100212.81;5013281;28;8834;-66
2023/07/24 06:34:26;;;;;;;;;8.00;6.00;;;;;18.78;75.31;100222.63;5012462;28;8842;-67
2023/07/24 06:36:53;;;;;;;;;7.67;7.33;;;;;18.84;75.32;100212.56;5028437;28;8879;-66
2023/07/24 06:39:20;;;;;;;;;8.67;7.00;;;;;18.84;74.99;100220.75;5008305;28;9009;-66
2023/07/24 06:41:46;;;;;;;;;6.50;6.50;;;;;18.85;75.06;100217.78;4993450;28;9015;-68
2023/07/24 06:44:13;;;;;;;;;4.75;4.75;;;;;18.89;74.86;100226.25;4993357;28;8841;-69
2023/07/24 06:46:40;;;;;;;;;10.00;6.00;;;;;18.97;74.78;100223.03;4993289;28;8887;-69
2023/07/24 06:49:06;;;;;;;;;4.75;4.75;;;;;18.98;74.90;100224.66;4991996;28;8843;-70
2023/07/24 06:51:33;;;;;;;;;7.50;7.50;;;;;19.01;74.96;100221.41;4992871;28;9695;-68
2023/07/24 06:53:59;;;;;;;;;7.50;7.50;;;;;18.98;74.78;100224.66;4992919;28;8857;-69
2023/07/24 06:56:25;;;;;;;;;10.25;7.50;;;;;18.98;74.58;100227.41;4993126;28;8852;-69
2023/07/24 06:58:53;;;;;;;;;7.00;4.75;;;;;18.98;74.69;100224.66;4991681;28;8859;-69
2023/07/24 07:01:19;;;;;;;;;6.00;5.75;;;;;19.00;74.58;100225.25;4992378;28;9598;-69
2023/07/24 07:03:46;;;;;;;;;10.50;9.75;;;;;18.96;74.78;100235.03;4991826;28;8838;-69
2023/07/24 07:06:13;;;;;;;;;10.00;6.75;;;;;18.95;74.91;100227.91;4993171;28;8901;-70
2023/07/24 07:08:42;;;;;;;;;5.75;5.75;;;;;18.99;74.95;100229.03;4993304;28;8822;-69
2023/07/24 07:11:09;;;;;;;;;7.25;7.25;;;;;19.01;74.63;100226.88;4994363;28;8812;-72
2023/07/24 07:13:35;;;;;;;;;9.75;5.00;;;;;18.95;74.52;100234.19;5005316;28;8829;-67
2023/07/24 07:16:02;;;;;;;;;5.00;4.50;;;;;18.93;74.55;100230.09;4974999;28;8921;-68
2023/07/24 07:18:28;;;;;;;;;6.00;4.25;;;;;18.93;74.68;100230.91;4992370;28;8830;-69
2023/07/24 07:20:55;;;;;;;;;6.75;6.00;;;;;18.96;74.60;100230.41;4990660;28;8851;-70
2023/07/24 07:23:22;;;;;;;;;7.25;7.25;;;;;19.00;74.43;100227.97;4990573;28;8862;-68
2023/07/24 07:25:51;;;;;;;;;6.00;6.00;;;;;19.02;74.30;100236.69;4991984;28;9650;-68
2023/07/24 07:28:18;;;;;;;;;3.75;3.75;;;;;19.05;74.14;100230.72;4991667;28;8835;-69
2023/07/24 07:30:45;;;;;;;;;10.50;9.25;;;;;19.05;73.92;100233.44;4991974;28;8837;-69
2023/07/24 07:33:13;;;;;;;;;7.75;5.00;;;;;19.08;73.90;100238.38;4991954;28;8841;-70
2023/07/24 07:35:39;;;;;;;;;8.00;7.50;;;;;19.15;73.63;100233.47;4991226;28;8955;-69
2023/07/24 07:38:06;;;;;;;;;8.25;7.50;;;;;19.24;73.44;100225.59;4991307;28;8847;-69
2023/07/24 07:40:33;;;;;;;;;8.75;8.00;;;;;19.13;72.97;100235.66;4989639;28;8916;-69
2023/07/24 07:42:59;;;;;;;;;8.00;5.25;;;;;19.18;73.09;100226.66;4990720;28;8948;-69
2023/07/24 07:45:25;;;;;;;;;6.75;6.75;;;;;19.14;72.94;100217.38;4991902;28;8856;-68
2023/07/24 07:47:53;;;;;;;;;9.00;8.25;;;;;19.11;72.68;100212.44;4992000;28;8851;-67
2023/07/24 07:50:20;;;;;;;;;10.00;5.00;;;;;19.10;72.58;100208.91;4990556;28;8821;-69
2023/07/24 07:52:50;;;;;;;;;11.00;8.00;;;;;19.14;72.73;100211.91;4990882;28;9528;-66
2023/07/24 07:55:18;;;;;;;;;6.25;5.75;;;;;19.18;72.62;100205.66;4990757;28;8847;-70
2023/07/24 07:57:45;;;;;;;;;7.00;7.00;;;;;19.25;72.37;100205.44;4991981;28;8973;-68
2023/07/24 08:00:12;;;;;;;;;9.00;6.00;;;;;19.30;72.04;100197.25;4991685;28;8862;-68
2023/07/24 08:02:41;;;;;;;;;4.50;4.50;;;;;19.42;72.04;100197.00;4991403;28;8863;-69
2023/07/24 08:05:09;;;;;;;;;7.25;6.25;;;;;19.51;71.85;100198.13;4991752;28;8843;-69
2023/07/24 08:07:43;;;;;;;;;4.50;4.25;;;;;19.55;71.55;100201.97;4989991;28;8854;-69
2023/07/24 08:10:10;;;;;;;;;10.00;9.00;;;;;19.58;71.35;100198.69;5006785;28;8831;-69
2023/07/24 08:12:36;;;;;;;;;6.00;5.75;;;;;19.56;71.33;100200.84;5010669;28;8865;-70
2023/07/24 08:15:03;;;;;;;;;7.25;7.25;;;;;19.51;70.97;100198.94;4989975;28;9033;-70
2023/07/24 08:17:29;;;;;;;;;6.75;6.50;;;;;19.46;71.04;100190.75;4991431;28;8856;-70
2023/07/24 08:19:56;;;;;;;;;7.00;5.25;;;;;19.42;71.13;100199.75;4981264;28;8843;-69
2023/07/24 08:22:23;;;;;;;;;7.25;6.25;;;;;19.40;71.04;100193.72;4973798;28;8866;-70
2023/07/24 08:24:51;;;;;;;;;6.00;6.00;;;;;19.34;71.24;100201.09;4991400;28;8850;-69
2023/07/24 08:27:19;;;;;;;;;6.25;6.25;;;;;19.32;71.13;100196.97;4990137;28;8859;-69
2023/07/24 08:29:51;;;;;;;;;8.00;6.00;;;;;19.36;71.15;100201.63;4990866;28;8843;-73
2023/07/24 08:32:17;;;;;;;;;6.00;6.00;;;;;19.48;70.75;100201.38;4989428;28;9640;-68
2023/07/24 08:34:44;;;;;;;;;8.50;7.00;;;;;19.51;70.62;100209.03;4990790;28;8866;-70
2023/07/24 08:37:11;;;;;;;;;7.00;5.50;;;;;19.60;70.47;100209.34;4990068;28;8841;-69
2023/07/24 08:39:38;;;;;;;;;7.00;7.00;;;;;19.64;70.21;100203.09;5005524;28;8829;-69
2023/07/24 08:42:12;;;;;;;;;7.50;7.50;;;;;19.75;69.87;100202.03;4989776;28;8809;-70
2023/07/24 08:44:39;;;;;;;;;8.75;8.25;;;;;19.74;69.49;100194.13;4991179;28;8817;-69
2023/07/24 08:47:09;;;;;;;;;5.25;4.25;;;;;19.62;69.51;100204.47;4991077;28;8844;-69
2023/07/24 08:49:38;;;;;;;;;6.50;6.25;;;;;19.54;69.30;100208.50;4983761;28;9550;-70
2023/07/24 08:52:05;;;;;;;;;7.00;7.00;;;;;19.53;69.39;100209.63;4969760;28;8940;-69
2023/07/24 08:54:32;;;;;;;;;6.50;6.50;;;;;19.54;69.39;100208.50;4969840;28;8845;-70
2023/07/24 08:56:59;;;;;;;;;7.25;7.25;;;;;19.54;69.59;100203.06;4972220;28;8852;-70
2023/07/24 08:59:26;;;;;;;;;5.00;4.75;;;;;19.54;69.77;100204.97;4986641;28;8842;-70
2023/07/24 09:01:53;;;;;;;;;6.50;6.50;;;;;19.60;69.86;100210.16;5005571;28;9616;-70
2023/07/24 09:04:19;;;;;;;;;6.50;6.50;;;;;19.52;69.34;100194.28;5005808;28;8880;-71
2023/07/24 09:06:46;;;;;;;;;8.00;8.00;;;;;19.57;69.37;100197.06;4977220;28;8845;-71
2023/07/24 09:09:14;;;;;;;;;5.75;5.75;;;;;19.62;69.29;100199.00;4985639;28;8820;-70
2023/07/24 09:11:53;;;;;;;;;8.00;7.00;;;;;19.59;69.01;100215.91;4970809;28;8832;-70
2023/07/24 09:14:32;;;;;;;;;5.00;5.00;;;;;19.58;68.68;100209.63;4981940;28;8846;-70
2023/07/24 09:17:03;;;;;;;;;9.00;6.75;;;;;19.59;68.95;100202.25;4973778;28;9256;-70
2023/07/24 09:19:29;;;;;;;;;4.50;4.00;;;;;19.65;69.01;100195.75;4970325;28;8825;-70
2023/07/24 09:22:12;;;;;;;;;9.00;8.00;;;;;19.65;68.78;100198.47;4969270;28;8856;-69
2023/07/24 09:24:50;;;;;;;;;9.75;7.75;;;;;19.79;68.42;100193.31;4953385;28;8853;-70
2023/07/24 09:27:18;;;;;;;;;7.75;7.75;;;;;19.92;68.47;100187.28;4971028;28;8956;-70
2023/07/24 09:29:46;;;;;;;;;7.00;6.25;;;;;20.14;68.28;100190.59;4970854;28;8875;-70
2023/07/24 09:32:24;;;;;;;;;7.75;6.25;;;;;20.29;67.37;100191.66;4965083;28;8836;-69
2023/07/24 09:34:51;;;;;;;;;7.50;7.00;;;;;20.39;66.26;100188.94;4970549;28;8865;-70
2023/07/24 09:37:29;;;;;;;;;6.75;6.75;;;;;20.37;65.75;100186.47;4971109;28;8857;-69
2023/07/24 09:39:55;;;;;;;;;7.00;7.00;;;;;20.45;65.34;100182.34;4972255;28;8868;-69
2023/07/24 09:42:30;;;;;;;;;9.75;8.50;;;;;20.50;65.38;100171.47;4986337;28;8808;-70
2023/07/24 09:44:57;;;;;;;;;7.50;7.50;;;;;20.61;65.38;100173.06;4969715;28;8824;-70
2023/07/24 09:47:23;;;;;;;;;7.25;5.00;;;;;20.67;65.37;100168.41;4970614;28;8851;-69
2023/07/24 09:50:10;;;;;;;;;8.75;8.75;;;;;20.73;64.80;100173.56;4970693;28;8824;-70
2023/07/24 09:52:41;;;;;;;;;8.67;7.00;;;;;20.76;64.45;100171.38;4972489;28;8847;-70
2023/07/24 09:55:15;;;;;;;;;8.00;7.25;;;;;20.76;64.44;100168.66;4974633;28;9603;-70
2023/07/24 09:57:43;;;;;;;;;4.50;4.00;;;;;20.79;64.36;100162.63;4977072;28;8827;-69
2023/07/24 10:00:12;;;;;;;;;6.25;6.25;;;;;20.77;64.36;100167.56;4974544;28;8844;-70
2023/07/24 10:02:39;;;;;;;;;8.00;6.00;;;;;20.74;64.72;100167.03;4972688;28;8859;-69
2023/07/24 10:05:07;;;;;;;;;6.25;6.25;;;;;20.69;64.66;100169.75;4989345;28;8843;-70
2023/07/24 10:07:33;;;;;;;;;6.00;6.00;;;;;20.74;64.59;100161.56;4957257;28;8890;-70
2023/07/24 10:10:01;;;;;;;;;8.25;8.25;;;;;20.74;63.53;100172.50;4974576;28;8840;-69
2023/07/24 10:12:30;;;;;;;;;9.50;8.25;;;;;20.65;63.39;100174.13;4973953;28;8832;-69
2023/07/24 10:14:57;;;;;;;;;8.00;7.50;;;;;20.60;63.75;100171.44;4986873;28;9547;-69
2023/07/24 10:17:37;;;;;;;;;8.75;7.00;;;;;20.71;64.09;100173.03;4978980;28;8843;-70
2023/07/24 10:20:11;;;;;;;;;7.50;6.25;;;;;20.85;63.59;100162.31;4974129;28;9528;-71
2023/07/24 10:22:43;;;;;;;;;8.50;7.00;;;;;20.93;63.65;100161.75;4973724;28;8938;-69
2023/07/24 10:25:11;;;;;;;;;10.50;9.00;;;;;21.02;63.27;100148.28;4974392;28;8840;-70
2023/07/24 10:27:46;;;;;;;;;6.50;4.00;;;;;21.08;62.46;100149.91;4988874;28;8914;-70
2023/07/24 10:30:13;;;;;;;;;8.00;8.00;;;;;21.07;61.19;100153.75;4973667;28;8924;-67
2023/07/24 10:33:11;;;;;;;;;7.00;6.50;;;;;21.20;60.86;100160.53;5003967;28;8841;-69
2023/07/24 10:35:43;;;;;;;;;8.25;7.25;;;;;21.27;60.53;100158.31;5000940;28;8868;-70
2023/07/24 10:38:11;;;;;;;;;6.00;5.50;;;;;21.24;60.96;100159.69;4973916;28;8843;-70
2023/07/24 10:40:39;;;;;;;;;4.00;4.00;;;;;21.22;60.71;100161.88;4973500;28;8871;-69
2023/07/24 10:43:17;;;;;;;;;6.25;6.00;;;;;21.16;61.14;100162.19;4990496;28;8868;-69
2023/07/24 10:45:53;;;;;;;;;10.25;7.50;;;;;21.12;61.03;100158.41;4991234;28;8888;-69
2023/07/24 10:48:26;;;;;;;;;7.25;7.25;;;;;21.05;61.04;100161.41;4991627;28;8834;-69
2023/07/24 10:50:52;;;;;;;;;8.00;5.00;;;;;21.04;61.10;100154.31;4991450;28;8827;-71
2023/07/24 10:53:23;;;;;;;;;5.00;5.00;;;;;21.10;61.51;100166.06;5008347;28;8833;-70
2023/07/24 10:55:51;;;;;;;;;8.50;7.00;;;;;21.15;61.53;100160.56;4992054;28;8845;-70
2023/07/24 10:58:18;;;;;;;;;5.75;5.75;;;;;21.23;61.52;100163.53;4992075;28;8945;-69
2023/07/24 11:00:47;;;;;;;;;7.75;7.75;;;;;21.28;60.70;100168.16;4992649;28;8939;-69
2023/07/24 11:03:14;;;;;;;;;6.50;6.50;;;;;21.23;60.54;100168.19;4991854;28;8953;-69
2023/07/24 11:05:42;;;;;;;;;7.75;6.75;;;;;21.16;60.87;100173.16;4993001;28;8827;-71
2023/07/24 11:08:15;;;;;;;;;6.25;6.25;;;;;21.11;61.32;100165.78;4991745;28;8959;-70
2023/07/24 11:10:47;;;;;;;;;6.00;6.00;;;;;21.10;61.43;100163.31;5011279;28;8837;-68
2023/07/24 11:13:20;;;;;;;;;6.00;6.00;;;;;21.05;61.64;100163.34;4991548;28;8865;-69
2023/07/24 11:15:48;;;;;;;;;6.75;6.75;;;;;20.99;61.81;100178.97;4993077;28;8849;-70
2023/07/24 11:18:16;;;;;;;;;7.25;7.25;;;;;20.93;62.19;100172.69;5007824;28;8814;-69
2023/07/24 11:20:45;;;;;;;;;6.25;4.25;;;;;20.92;62.50;100179.25;4992323;28;8833;-68
2023/07/24 11:23:12;;;;;;;;;7.25;6.50;;;;;20.96;62.88;100174.06;4992694;28;8877;-68
2023/07/24 11:25:40;;;;;;;;;5.50;5.50;;;;;21.02;62.86;100172.09;4998635;28;8831;-69
2023/07/24 11:28:08;;;;;;;;;8.00;8.00;;;;;21.03;62.89;100184.72;5012051;28;8835;-69
2023/07/24 11:30:35;;;;;;;;;7.25;7.25;;;;;21.05;63.00;100187.97;5011557;28;9438;-69
2023/07/24 11:33:05;;;;;;;;;7.00;7.00;;;;;21.08;63.27;100195.63;5012009;28;8843;-69
2023/07/24 11:35:32;;;;;;;;;5.25;5.25;;;;;21.05;63.21;100204.38;5010868;28;8962;-69
2023/07/24 11:37:59;;;;;;;;;5.75;4.50;;;;;21.02;63.30;100203.03;4992499;28;8943;-70